Weather at St Mary's Hospital Heliport

Public forecast

Using degrees Fahrenheit for public forecast. Weather courtesy of forecast.io.

Closest aviation weather report (METAR) to St Mary's Hospital Heliport

Closest report is Austin Straubel International Airport, 3.9 nm (7.3 km) SW. Retrieved 2020/11/28 03:53 UTC (22 minutes ago):

KGRB 280353Z 25004KT 10SM CLR M02/M06 A3008 RMK AO2 SLP195 T10171061

Closest aviation forecast (TAF) to St Mary's Hospital Heliport

Closest forecast is Austin Straubel International Airport, 3.9 nm (7.3 km) SW. Retrieved 2020-11-28 00:30 UTC (4 hours ago):

TAF KSBD 272328Z 2800/2824 VRB05KT P6SM SKC TAF KGRB 272329Z 2800/2824 28007KT P6SM SCT250 FM281200 23009KT P6SM BKN200 WS017/26035KT FM281600 24011G21KT P6SM SCT250 FM282300 23008KT P6SM SKC